YAYE/AYQ METAR and TAF weather

Enter ICAO airport designator
Station Type Date Time Source
YAYE METAR 2021/05/10 22:00 UTC NOAA

YAYE 102200Z AUTO 16004KT 9999 // NCD 11/06 Q1023


Station Type Date Time Source
YAYE Decoded METAR 2021/05/10 22:00 UTC NOAA

Ayers Rock, Australia (YAYE) 25-11S 130-58E
May 10, 2021 - 06:00 PM EDT / 2021.05.10 2200 UTC
Wind: from the SSE (160 degrees) at 5 MPH (4 KT):0
Visibility: greater than 7 mile(s):0
Temperature: 51 F (11 C)
Dew Point: 42 F (6 C)
Relative Humidity: 71%
Pressure (altimeter): 30.21 in. Hg (1023 hPa)
ob: YAYE 102200Z AUTO 16004KT 9999 // NCD 11/06 Q1023
cycle: 22

Station Type Date Time Source
YAYE TAF UTC NOAA

Error!

Example: see airport list